Terminal Aerodrome Forecast
Issued by NWS

Home | Current Version | Previous Version | Text Only | Print | Product List | Glossary On
Versions: 1 2 3 4 5 6 7 8 9 10 11 12 13 14 15 16 17 18 19 20 21 22 23 24 25 26 27 28 29 30 31 32 33
000
FTUS44 KFWD 221128
TAFFTW
TAF
KFTW 221128Z 2212/2312 12009KT P6SM VCSH BKN009 OVC015
      TEMPO 2212/2214 4SM -DZ BR BKN007
     FM221400 11008KT P6SM VCTS BKN012 OVC045CB
     FM221800 12009KT P6SM BKN025
     FM230500 13010KT P6SM OVC015
     FM230900 14007KT 5SM BR OVC008=

USA.gov is the U.S. government's official web portal to all federal, state and local government web resources and services.